sensor_id;sensor_type;location;lat;lon;timestamp;P1;P2;P0
84282;PMS7003;74440;52.600;21.450;2024-01-30T00:03:46;16;14;10
84282;PMS7003;74440;52.600;21.450;2024-01-30T00:08:03;15;12;9
84282;PMS7003;74440;52.600;21.450;2024-01-30T00:12:05;19;15;11
84282;PMS7003;74440;52.600;21.450;2024-01-30T00:16:07;11;11;6
84282;PMS7003;74440;52.600;21.450;2024-01-30T00:20:10;15;14;10
84282;PMS7003;74440;52.600;21.450;2024-01-30T00:24:11;19;16;10
84282;PMS7003;74440;52.600;21.450;2024-01-30T00:28:13;15;14;8
84282;PMS7003;74440;52.600;21.450;2024-01-30T00:32:14;11;10;7
84282;PMS7003;74440;52.600;21.450;2024-01-30T00:36:16;15;13;9
84282;PMS7003;74440;52.600;21.450;2024-01-30T00:40:18;13;12;10
84282;PMS7003;74440;52.600;21.450;2024-01-30T00:44:34;15;12;8
84282;PMS7003;74440;52.600;21.450;2024-01-30T00:48:39;14;12;8
84282;PMS7003;74440;52.600;21.450;2024-01-30T00:52:41;13;13;8
84282;PMS7003;74440;52.600;21.450;2024-01-30T00:56:45;14;12;8
84282;PMS7003;74440;52.600;21.450;2024-01-30T01:00:47;14;13;10
84282;PMS7003;74440;52.600;21.450;2024-01-30T01:05:04;14;10;7
84282;PMS7003;74440;52.600;21.450;2024-01-30T01:09:06;16;15;11
84282;PMS7003;74440;52.600;21.450;2024-01-30T01:13:08;13;11;7
84282;PMS7003;74440;52.600;21.450;2024-01-30T01:17:09;14;11;7
84282;PMS7003;74440;52.600;21.450;2024-01-30T01:21:11;14;13;9
84282;PMS7003;74440;52.600;21.450;2024-01-30T01:25:13;13;12;7
84282;PMS7003;74440;52.600;21.450;2024-01-30T01:29:14;14;14;10
84282;PMS7003;74440;52.600;21.450;2024-01-30T01:33:16;21;16;10
84282;PMS7003;74440;52.600;21.450;2024-01-30T01:37:19;12;11;7
84282;PMS7003;74440;52.600;21.450;2024-01-30T01:41:34;19;16;9
84282;PMS7003;74440;52.600;21.450;2024-01-30T01:45:35;18;13;9
84282;PMS7003;74440;52.600;21.450;2024-01-30T01:49:37;16;14;9
84282;PMS7003;74440;52.600;21.450;2024-01-30T01:53:39;18;17;9
84282;PMS7003;74440;52.600;21.450;2024-01-30T01:57:41;14;13;9
84282;PMS7003;74440;52.600;21.450;2024-01-30T02:01:43;19;13;8
84282;PMS7003;74440;52.600;21.450;2024-01-30T02:05:50;19;15;10
84282;PMS7003;74440;52.600;21.450;2024-01-30T02:09:52;13;10;5
84282;PMS7003;74440;52.600;21.450;2024-01-30T02:13:54;12;12;8
84282;PMS7003;74440;52.600;21.450;2024-01-30T02:18:04;14;13;7
84282;PMS7003;74440;52.600;21.450;2024-01-30T02:22:06;15;12;8
84282;PMS7003;74440;52.600;21.450;2024-01-30T02:26:08;18;16;10
84282;PMS7003;74440;52.600;21.450;2024-01-30T02:30:10;14;12;7
84282;PMS7003;74440;52.600;21.450;2024-01-30T02:34:13;15;14;10
84282;PMS7003;74440;52.600;21.450;2024-01-30T02:38:17;15;12;8
84282;PMS7003;74440;52.600;21.450;2024-01-30T02:42:19;15;13;10
84282;PMS7003;74440;52.600;21.450;2024-01-30T02:46:21;15;13;8
84282;PMS7003;74440;52.600;21.450;2024-01-30T02:50:23;14;12;9
84282;PMS7003;74440;52.600;21.450;2024-01-30T02:54:34;18;16;12
84282;PMS7003;74440;52.600;21.450;2024-01-30T02:58:36;20;15;11
84282;PMS7003;74440;52.600;21.450;2024-01-30T03:02:38;14;13;9
84282;PMS7003;74440;52.600;21.450;2024-01-30T03:06:44;15;13;9
84282;PMS7003;74440;52.600;21.450;2024-01-30T03:10:49;11;9;6
84282;PMS7003;74440;52.600;21.450;2024-01-30T03:15:06;16;15;9
84282;PMS7003;74440;52.600;21.450;2024-01-30T03:19:08;14;13;8
84282;PMS7003;74440;52.600;21.450;2024-01-30T03:23:10;15;14;9
84282;PMS7003;74440;52.600;21.450;2024-01-30T03:27:11;17;13;8
84282;PMS7003;74440;52.600;21.450;2024-01-30T03:31:14;18;13;8
84282;PMS7003;74440;52.600;21.450;2024-01-30T03:35:16;15;13;10
84282;PMS7003;74440;52.600;21.450;2024-01-30T03:39:19;15;14;10
84282;PMS7003;74440;52.600;21.450;2024-01-30T03:43:21;18;12;8
84282;PMS7003;74440;52.600;21.450;2024-01-30T03:47:22;20;14;10
84282;PMS7003;74440;52.600;21.450;2024-01-30T03:51:35;12;11;9
84282;PMS7003;74440;52.600;21.450;2024-01-30T03:55:37;10;8;6
84282;PMS7003;74440;52.600;21.450;2024-01-30T03:59:41;14;11;8
84282;PMS7003;74440;52.600;21.450;2024-01-30T04:03:48;16;13;9
84282;PMS7003;74440;52.600;21.450;2024-01-30T04:07:49;15;14;8
84282;PMS7003;74440;52.600;21.450;2024-01-30T04:12:07;13;12;7
84282;PMS7003;74440;52.600;21.450;2024-01-30T04:16:18;16;12;8
84282;PMS7003;74440;52.600;21.450;2024-01-30T04:20:22;18;16;11
84282;PMS7003;74440;52.600;21.450;2024-01-30T04:24:24;13;11;8
84282;PMS7003;74440;52.600;21.450;2024-01-30T04:28:31;17;15;9
84282;PMS7003;74440;52.600;21.450;2024-01-30T04:32:39;20;13;9
84282;PMS7003;74440;52.600;21.450;2024-01-30T04:36:42;14;12;8
84282;PMS7003;74440;52.600;21.450;2024-01-30T04:40:46;13;11;7
84282;PMS7003;74440;52.600;21.450;2024-01-30T04:44:48;17;15;10
84282;PMS7003;74440;52.600;21.450;2024-01-30T04:48:50;15;14;11
84282;PMS7003;74440;52.600;21.450;2024-01-30T04:52:52;22;17;12
84282;PMS7003;74440;52.600;21.450;2024-01-30T04:56:54;15;14;10
84282;PMS7003;74440;52.600;21.450;2024-01-30T05:00:55;17;14;11
84282;PMS7003;74440;52.600;21.450;2024-01-30T05:04:57;18;16;10
84282;PMS7003;74440;52.600;21.450;2024-01-30T05:09:08;15;14;10
84282;PMS7003;74440;52.600;21.450;2024-01-30T05:13:10;19;16;11
84282;PMS7003;74440;52.600;21.450;2024-01-30T05:17:14;24;20;13
84282;PMS7003;74440;52.600;21.450;2024-01-30T05:21:16;19;17;11
84282;PMS7003;74440;52.600;21.450;2024-01-30T05:25:17;19;15;11
84282;PMS7003;74440;52.600;21.450;2024-01-30T05:29:19;21;19;12
84282;PMS7003;74440;52.600;21.450;2024-01-30T05:33:21;19;16;9
84282;PMS7003;74440;52.600;21.450;2024-01-30T05:37:22;23;17;12
84282;PMS7003;74440;52.600;21.450;2024-01-30T05:41:24;21;19;12
84282;PMS7003;74440;52.600;21.450;2024-01-30T05:45:38;26;20;11
84282;PMS7003;74440;52.600;21.450;2024-01-30T05:49:39;29;20;13
84282;PMS7003;74440;52.600;21.450;2024-01-30T05:53:41;23;18;12
84282;PMS7003;74440;52.600;21.450;2024-01-30T05:57:42;20;18;12
84282;PMS7003;74440;52.600;21.450;2024-01-30T06:01:47;10;5;2
84282;PMS7003;74440;52.600;21.450;2024-01-30T06:05:49;16;13;5
84282;PMS7003;74440;52.600;21.450;2024-01-30T06:09:51;25;19;12
84282;PMS7003;74440;52.600;21.450;2024-01-30T06:13:52;18;14;10
84282;PMS7003;74440;52.600;21.450;2024-01-30T06:17:54;21;16;11
84282;PMS7003;74440;52.600;21.450;2024-01-30T06:22:08;10;7;3
84282;PMS7003;74440;52.600;21.450;2024-01-30T06:26:09;25;21;13
84282;PMS7003;74440;52.600;21.450;2024-01-30T06:30:11;19;18;13
84282;PMS7003;74440;52.600;21.450;2024-01-30T06:34:13;21;18;12
84282;PMS7003;74440;52.600;21.450;2024-01-30T06:38:15;24;22;13
84282;PMS7003;74440;52.600;21.450;2024-01-30T06:42:16;15;14;10
84282;PMS7003;74440;52.600;21.450;2024-01-30T06:46:18;21;18;12
84282;PMS7003;74440;52.600;21.450;2024-01-30T06:50:20;26;21;13
84282;PMS7003;74440;52.600;21.450;2024-01-30T06:54:21;19;19;13
84282;PMS7003;74440;52.600;21.450;2024-01-30T06:58:37;24;19;13
84282;PMS7003;74440;52.600;21.450;2024-01-30T07:02:39;23;21;14
84282;PMS7003;74440;52.600;21.450;2024-01-30T07:06:41;26;24;16
84282;PMS7003;74440;52.600;21.450;2024-01-30T07:10:43;28;26;17
84282;PMS7003;74440;52.600;21.450;2024-01-30T07:14:45;30;28;17
84282;PMS7003;74440;52.600;21.450;2024-01-30T07:18:46;37;30;21
84282;PMS7003;74440;52.600;21.450;2024-01-30T07:22:48;31;25;15
84282;PMS7003;74440;52.600;21.450;2024-01-30T07:26:49;27;24;15
84282;PMS7003;74440;52.600;21.450;2024-01-30T07:30:51;25;21;12
84282;PMS7003;74440;52.600;21.450;2024-01-30T07:35:07;26;21;14
84282;PMS7003;74440;52.600;21.450;2024-01-30T07:39:09;25;20;12
84282;PMS7003;74440;52.600;21.450;2024-01-30T07:43:11;24;18;13
84282;PMS7003;74440;52.600;21.450;2024-01-30T07:47:12;28;22;15
84282;PMS7003;74440;52.600;21.450;2024-01-30T07:51:14;24;19;14
84282;PMS7003;74440;52.600;21.450;2024-01-30T07:55:16;26;21;13
84282;PMS7003;74440;52.600;21.450;2024-01-30T07:59:17;25;22;15
84282;PMS7003;74440;52.600;21.450;2024-01-30T08:03:22;24;20;15
84282;PMS7003;74440;52.600;21.450;2024-01-30T08:07:23;30;24;16
84282;PMS7003;74440;52.600;21.450;2024-01-30T08:11:36;26;23;15
84282;PMS7003;74440;52.600;21.450;2024-01-30T08:15:38;32;27;17
84282;PMS7003;74440;52.600;21.450;2024-01-30T08:19:39;29;26;18
84282;PMS7003;74440;52.600;21.450;2024-01-30T08:23:41;32;28;19
84282;PMS7003;74440;52.600;21.450;2024-01-30T08:27:43;38;32;20
84282;PMS7003;74440;52.600;21.450;2024-01-30T08:31:45;31;29;17
84282;PMS7003;74440;52.600;21.450;2024-01-30T08:35:47;35;30;19
84282;PMS7003;74440;52.600;21.450;2024-01-30T08:39:48;29;26;18
84282;PMS7003;74440;52.600;21.450;2024-01-30T08:43:50;35;31;20
84282;PMS7003;74440;52.600;21.450;2024-01-30T08:48:06;28;26;16
84282;PMS7003;74440;52.600;21.450;2024-01-30T08:52:08;24;23;14
84282;PMS7003;74440;52.600;21.450;2024-01-30T08:56:10;25;22;15
84282;PMS7003;74440;52.600;21.450;2024-01-30T09:00:11;16;16;14
84282;PMS7003;74440;52.600;21.450;2024-01-30T09:04:13;30;27;17
84282;PMS7003;74440;52.600;21.450;2024-01-30T09:08:15;29;25;15
84282;PMS7003;74440;52.600;21.450;2024-01-30T09:12:16;29;25;18
84282;PMS7003;74440;52.600;21.450;2024-01-30T09:16:18;34;29;19
84282;PMS7003;74440;52.600;21.450;2024-01-30T09:20:20;28;25;17
84282;PMS7003;74440;52.600;21.450;2024-01-30T09:24:35;25;24;16
84282;PMS7003;74440;52.600;21.450;2024-01-30T09:28:36;28;22;14
84282;PMS7003;74440;52.600;21.450;2024-01-30T09:32:39;27;24;16
84282;PMS7003;74440;52.600;21.450;2024-01-30T09:36:41;24;23;16
84282;PMS7003;74440;52.600;21.450;2024-01-30T09:40:42;26;23;15
84282;PMS7003;74440;52.600;21.450;2024-01-30T09:44:45;25;23;16
84282;PMS7003;74440;52.600;21.450;2024-01-30T09:48:51;23;22;16
84282;PMS7003;74440;52.600;21.450;2024-01-30T09:52:55;30;26;16
84282;PMS7003;74440;52.600;21.450;2024-01-30T09:56:59;26;24;15
84282;PMS7003;74440;52.600;21.450;2024-01-30T10:01:06;28;25;15
84282;PMS7003;74440;52.600;21.450;2024-01-30T10:05:08;23;19;14
84282;PMS7003;74440;52.600;21.450;2024-01-30T10:09:10;30;24;16
84282;PMS7003;74440;52.600;21.450;2024-01-30T10:13:11;34;25;15
84282;PMS7003;74440;52.600;21.450;2024-01-30T10:17:13;28;25;15
84282;PMS7003;74440;52.600;21.450;2024-01-30T10:21:15;25;20;13
84282;PMS7003;74440;52.600;21.450;2024-01-30T10:25:16;27;24;18
84282;PMS7003;74440;52.600;21.450;2024-01-30T10:29:18;26;25;16
84282;PMS7003;74440;52.600;21.450;2024-01-30T10:33:19;28;21;14
84282;PMS7003;74440;52.600;21.450;2024-01-30T10:37:35;29;24;16
84282;PMS7003;74440;52.600;21.450;2024-01-30T10:41:39;24;21;15
84282;PMS7003;74440;52.600;21.450;2024-01-30T10:45:49;27;23;13
84282;PMS7003;74440;52.600;21.450;2024-01-30T10:49:55;28;25;17
84282;PMS7003;74440;52.600;21.450;2024-01-30T10:53:57;28;25;18
84282;PMS7003;74440;52.600;21.450;2024-01-30T10:58:07;30;25;16
84282;PMS7003;74440;52.600;21.450;2024-01-30T11:02:12;29;23;18
84282;PMS7003;74440;52.600;21.450;2024-01-30T11:06:15;28;26;16
84282;PMS7003;74440;52.600;21.450;2024-01-30T11:10:19;31;28;18
84282;PMS7003;74440;52.600;21.450;2024-01-30T11:14:24;27;24;17
84282;PMS7003;74440;52.600;21.450;2024-01-30T11:18:38;27;23;15
84282;PMS7003;74440;52.600;21.450;2024-01-30T11:22:41;31;25;16
84282;PMS7003;74440;52.600;21.450;2024-01-30T11:26:44;26;24;15
84282;PMS7003;74440;52.600;21.450;2024-01-30T11:30:46;24;22;15
84282;PMS7003;74440;52.600;21.450;2024-01-30T11:34:51;26;23;16
84282;PMS7003;74440;52.600;21.450;2024-01-30T11:38:54;28;24;16
84282;PMS7003;74440;52.600;21.450;2024-01-30T11:42:59;27;23;17
84282;PMS7003;74440;52.600;21.450;2024-01-30T11:47:01;33;28;19
84282;PMS7003;74440;52.600;21.450;2024-01-30T11:51:04;27;22;14
84282;PMS7003;74440;52.600;21.450;2024-01-30T11:55:10;26;22;15
84282;PMS7003;74440;52.600;21.450;2024-01-30T11:59:11;27;24;15
84282;PMS7003;74440;52.600;21.450;2024-01-30T12:03:14;21;20;14
84282;PMS7003;74440;52.600;21.450;2024-01-30T12:07:16;26;23;16
84282;PMS7003;74440;52.600;21.450;2024-01-30T12:11:17;25;22;16
84282;PMS7003;74440;52.600;21.450;2024-01-30T12:15:20;28;26;18
84282;PMS7003;74440;52.600;21.450;2024-01-30T12:19:23;28;26;16
84282;PMS7003;74440;52.600;21.450;2024-01-30T12:23:28;27;24;15
84282;PMS7003;74440;52.600;21.450;2024-01-30T12:27:30;33;28;18
84282;PMS7003;74440;52.600;21.450;2024-01-30T12:31:38;32;28;19
84282;PMS7003;74440;52.600;21.450;2024-01-30T12:35:48;29;26;17
84282;PMS7003;74440;52.600;21.450;2024-01-30T12:39:52;26;24;16
84282;PMS7003;74440;52.600;21.450;2024-01-30T12:43:54;28;26;17
84282;PMS7003;74440;52.600;21.450;2024-01-30T12:47:57;26;24;18
84282;PMS7003;74440;52.600;21.450;2024-01-30T12:52:10;30;26;16
84282;PMS7003;74440;52.600;21.450;2024-01-30T12:56:13;27;23;16
84282;PMS7003;74440;52.600;21.450;2024-01-30T13:00:15;28;25;19
84282;PMS7003;74440;52.600;21.450;2024-01-30T13:06:05;24;23;15
84282;PMS7003;74440;52.600;21.450;2024-01-30T13:10:07;32;28;19
84282;PMS7003;74440;52.600;21.450;2024-01-30T13:14:08;30;26;17
84282;PMS7003;74440;52.600;21.450;2024-01-30T13:18:09;28;26;17
84282;PMS7003;74440;52.600;21.450;2024-01-30T13:22:11;22;19;10
84282;PMS7003;74440;52.600;21.450;2024-01-30T13:26:13;28;27;19
84282;PMS7003;74440;52.600;21.450;2024-01-30T13:30:14;31;29;18
84282;PMS7003;74440;52.600;21.450;2024-01-30T13:34:16;28;25;17
84282;PMS7003;74440;52.600;21.450;2024-01-30T13:38:34;28;25;16
84282;PMS7003;74440;52.600;21.450;2024-01-30T13:42:35;28;24;16
84282;PMS7003;74440;52.600;21.450;2024-01-30T13:46:37;30;28;18
84282;PMS7003;74440;52.600;21.450;2024-01-30T13:50:39;29;26;16
84282;PMS7003;74440;52.600;21.450;2024-01-30T13:54:41;30;27;17
84282;PMS7003;74440;52.600;21.450;2024-01-30T13:58:42;27;24;16
84282;PMS7003;74440;52.600;21.450;2024-01-30T14:02:44;27;23;14
84282;PMS7003;74440;52.600;21.450;2024-01-30T14:06:45;24;23;16
84282;PMS7003;74440;52.600;21.450;2024-01-30T14:10:47;23;17;13
84282;PMS7003;74440;52.600;21.450;2024-01-30T14:15:03;26;23;16
84282;PMS7003;74440;52.600;21.450;2024-01-30T14:19:05;30;24;14
84282;PMS7003;74440;52.600;21.450;2024-01-30T14:23:07;29;26;16
84282;PMS7003;74440;52.600;21.450;2024-01-30T14:27:09;34;27;18
84282;PMS7003;74440;52.600;21.450;2024-01-30T14:31:11;22;20;15
84282;PMS7003;74440;52.600;21.450;2024-01-30T14:35:12;26;23;15
84282;PMS7003;74440;52.600;21.450;2024-01-30T14:39:14;23;22;14
84282;PMS7003;74440;52.600;21.450;2024-01-30T14:43:15;25;21;14
84282;PMS7003;74440;52.600;21.450;2024-01-30T14:47:16;27;24;16
84282;PMS7003;74440;52.600;21.450;2024-01-30T14:51:32;24;18;13
84282;PMS7003;74440;52.600;21.450;2024-01-30T14:55:34;29;26;16
84282;PMS7003;74440;52.600;21.450;2024-01-30T14:59:35;30;26;15
84282;PMS7003;74440;52.600;21.450;2024-01-30T15:03:37;29;26;16
84282;PMS7003;74440;52.600;21.450;2024-01-30T15:07:40;24;22;14
84282;PMS7003;74440;52.600;21.450;2024-01-30T15:11:43;30;25;15
84282;PMS7003;74440;52.600;21.450;2024-01-30T15:15:46;22;21;15
84282;PMS7003;74440;52.600;21.450;2024-01-30T15:19:47;26;22;14
84282;PMS7003;74440;52.600;21.450;2024-01-30T15:23:52;24;21;14
84282;PMS7003;74440;52.600;21.450;2024-01-30T15:28:01;29;28;17
84282;PMS7003;74440;52.600;21.450;2024-01-30T15:32:03;35;27;14
84282;PMS7003;74440;52.600;21.450;2024-01-30T15:36:05;30;26;17
84282;PMS7003;74440;52.600;21.450;2024-01-30T15:40:07;28;24;15
84282;PMS7003;74440;52.600;21.450;2024-01-30T15:44:09;31;24;16
84282;PMS7003;74440;52.600;21.450;2024-01-30T15:48:11;31;25;17
84282;PMS7003;74440;52.600;21.450;2024-01-30T15:52:12;28;25;17
84282;PMS7003;74440;52.600;21.450;2024-01-30T15:56:17;31;25;18
84282;PMS7003;74440;52.600;21.450;2024-01-30T16:00:19;28;26;17
84282;PMS7003;74440;52.600;21.450;2024-01-30T16:04:31;32;29;18
84282;PMS7003;74440;52.600;21.450;2024-01-30T16:08:32;36;33;22
84282;PMS7003;74440;52.600;21.450;2024-01-30T16:12:34;32;30;22
84282;PMS7003;74440;52.600;21.450;2024-01-30T16:16:35;36;32;18
84282;PMS7003;74440;52.600;21.450;2024-01-30T16:20:39;28;27;18
84282;PMS7003;74440;52.600;21.450;2024-01-30T16:24:42;39;32;20
84282;PMS7003;74440;52.600;21.450;2024-01-30T16:28:43;36;29;21
84282;PMS7003;74440;52.600;21.450;2024-01-30T16:32:45;34;31;21
84282;PMS7003;74440;52.600;21.450;2024-01-30T16:36:47;28;23;17
84282;PMS7003;74440;52.600;21.450;2024-01-30T16:41:00;29;27;20
84282;PMS7003;74440;52.600;21.450;2024-01-30T16:45:02;29;28;21
84282;PMS7003;74440;52.600;21.450;2024-01-30T16:49:03;32;27;18
84282;PMS7003;74440;52.600;21.450;2024-01-30T16:53:05;32;27;20
84282;PMS7003;74440;52.600;21.450;2024-01-30T16:57:06;33;27;19
84282;PMS7003;74440;52.600;21.450;2024-01-30T17:01:08;31;28;20
84282;PMS7003;74440;52.600;21.450;2024-01-30T17:05:09;27;24;16
84282;PMS7003;74440;52.600;21.450;2024-01-30T17:09:10;36;30;18
84282;PMS7003;74440;52.600;21.450;2024-01-30T17:13:12;30;26;17
84282;PMS7003;74440;52.600;21.450;2024-01-30T17:17:30;32;28;17
84282;PMS7003;74440;52.600;21.450;2024-01-30T17:21:31;43;32;22
84282;PMS7003;74440;52.600;21.450;2024-01-30T17:25:37;37;34;21
84282;PMS7003;74440;52.600;21.450;2024-01-30T17:29:39;41;34;22
84282;PMS7003;74440;52.600;21.450;2024-01-30T17:33:40;43;33;24
84282;PMS7003;74440;52.600;21.450;2024-01-30T17:37:47;42;31;20
84282;PMS7003;74440;52.600;21.450;2024-01-30T17:41:49;36;30;20
84282;PMS7003;74440;52.600;21.450;2024-01-30T17:45:52;34;27;19
84282;PMS7003;74440;52.600;21.450;2024-01-30T17:49:54;31;28;17
84282;PMS7003;74440;52.600;21.450;2024-01-30T17:54:03;29;25;17
84282;PMS7003;74440;52.600;21.450;2024-01-30T17:58:05;39;33;21
84282;PMS7003;74440;52.600;21.450;2024-01-30T18:02:07;35;29;19
84282;PMS7003;74440;52.600;21.450;2024-01-30T18:06:12;27;25;17
84282;PMS7003;74440;52.600;21.450;2024-01-30T18:10:16;27;24;14
84282;PMS7003;74440;52.600;21.450;2024-01-30T18:14:35;30;26;17
84282;PMS7003;74440;52.600;21.450;2024-01-30T18:18:37;36;28;18
84282;PMS7003;74440;52.600;21.450;2024-01-30T18:22:39;39;35;23
84282;PMS7003;74440;52.600;21.450;2024-01-30T18:26:45;35;32;19
84282;PMS7003;74440;52.600;21.450;2024-01-30T18:30:47;25;21;14
84282;PMS7003;74440;52.600;21.450;2024-01-30T18:34:48;36;28;19
84282;PMS7003;74440;52.600;21.450;2024-01-30T18:38:50;22;22;15
84282;PMS7003;74440;52.600;21.450;2024-01-30T18:42:51;33;30;19
84282;PMS7003;74440;52.600;21.450;2024-01-30T18:46:53;31;28;19
84282;PMS7003;74440;52.600;21.450;2024-01-30T18:51:05;36;32;22
84282;PMS7003;74440;52.600;21.450;2024-01-30T18:55:07;41;32;20
84282;PMS7003;74440;52.600;21.450;2024-01-30T18:59:11;35;26;18
84282;PMS7003;74440;52.600;21.450;2024-01-30T19:03:18;37;30;20
84282;PMS7003;74440;52.600;21.450;2024-01-30T19:07:21;37;31;20
84282;PMS7003;74440;52.600;21.450;2024-01-30T19:11:36;35;33;22
84282;PMS7003;74440;52.600;21.450;2024-01-30T19:15:38;36;32;21
84282;PMS7003;74440;52.600;21.450;2024-01-30T19:19:39;26;23;19
84282;PMS7003;74440;52.600;21.450;2024-01-30T19:23:41;43;34;22
84282;PMS7003;74440;52.600;21.450;2024-01-30T19:27:42;37;34;23
84282;PMS7003;74440;52.600;21.450;2024-01-30T19:31:44;38;33;21
84282;PMS7003;74440;52.600;21.450;2024-01-30T19:35:45;35;29;19
84282;PMS7003;74440;52.600;21.450;2024-01-30T19:39:47;29;23;9
84282;PMS7003;74440;52.600;21.450;2024-01-30T19:43:49;28;27;19
84282;PMS7003;74440;52.600;21.450;2024-01-30T19:48:06;37;31;21
84282;PMS7003;74440;52.600;21.450;2024-01-30T19:52:08;34;29;20
84282;PMS7003;74440;52.600;21.450;2024-01-30T19:56:10;35;29;20
84282;PMS7003;74440;52.600;21.450;2024-01-30T20:00:12;38;31;20
84282;PMS7003;74440;52.600;21.450;2024-01-30T20:04:14;36;30;18
84282;PMS7003;74440;52.600;21.450;2024-01-30T20:08:16;42;33;20
84282;PMS7003;74440;52.600;21.450;2024-01-30T20:12:17;31;28;18
84282;PMS7003;74440;52.600;21.450;2024-01-30T20:16:19;34;27;20
84282;PMS7003;74440;52.600;21.450;2024-01-30T20:20:20;36;30;20
84282;PMS7003;74440;52.600;21.450;2024-01-30T20:24:35;37;34;20
84282;PMS7003;74440;52.600;21.450;2024-01-30T20:28:37;35;28;18
84282;PMS7003;74440;52.600;21.450;2024-01-30T20:32:38;41;31;18
84282;PMS7003;74440;52.600;21.450;2024-01-30T20:36:43;40;29;20
84282;PMS7003;74440;52.600;21.450;2024-01-30T20:40:45;34;30;21
84282;PMS7003;74440;52.600;21.450;2024-01-30T20:44:46;39;35;22
84282;PMS7003;74440;52.600;21.450;2024-01-30T20:48:48;29;24;18
84282;PMS7003;74440;52.600;21.450;2024-01-30T20:52:49;40;33;22
84282;PMS7003;74440;52.600;21.450;2024-01-30T20:56:50;36;32;22
84282;PMS7003;74440;52.600;21.450;2024-01-30T21:01:05;40;32;20
84282;PMS7003;74440;52.600;21.450;2024-01-30T21:05:08;33;29;17
84282;PMS7003;74440;52.600;21.450;2024-01-30T21:09:09;33;30;19
84282;PMS7003;74440;52.600;21.450;2024-01-30T21:13:11;36;30;21
84282;PMS7003;74440;52.600;21.450;2024-01-30T21:17:12;28;25;15
84282;PMS7003;74440;52.600;21.450;2024-01-30T21:21:15;31;27;18
84282;PMS7003;74440;52.600;21.450;2024-01-30T21:25:18;39;30;21
84282;PMS7003;74440;52.600;21.450;2024-01-30T21:29:20;45;32;19
84282;PMS7003;74440;52.600;21.450;2024-01-30T21:33:21;39;33;21
84282;PMS7003;74440;52.600;21.450;2024-01-30T21:37:35;33;30;19
84282;PMS7003;74440;52.600;21.450;2024-01-30T21:41:37;35;31;22
84282;PMS7003;74440;52.600;21.450;2024-01-30T21:45:38;38;33;22
84282;PMS7003;74440;52.600;21.450;2024-01-30T21:49:40;37;30;19
84282;PMS7003;74440;52.600;21.450;2024-01-30T21:53:41;36;29;18
84282;PMS7003;74440;52.600;21.450;2024-01-30T21:57:43;36;31;21
84282;PMS7003;74440;52.600;21.450;2024-01-30T22:01:44;38;30;20
84282;PMS7003;74440;52.600;21.450;2024-01-30T22:05:46;33;30;20
84282;PMS7003;74440;52.600;21.450;2024-01-30T22:09:47;36;31;21
84282;PMS7003;74440;52.600;21.450;2024-01-30T22:14:04;32;25;15
84282;PMS7003;74440;52.600;21.450;2024-01-30T22:18:06;42;35;21
84282;PMS7003;74440;52.600;21.450;2024-01-30T22:22:13;43;33;21
84282;PMS7003;74440;52.600;21.450;2024-01-30T22:26:15;33;26;16
84282;PMS7003;74440;52.600;21.450;2024-01-30T22:30:16;35;32;20
84282;PMS7003;74440;52.600;21.450;2024-01-30T22:34:18;35;32;21
84282;PMS7003;74440;52.600;21.450;2024-01-30T22:38:20;37;33;21
84282;PMS7003;74440;52.600;21.450;2024-01-30T22:42:22;40;35;22
84282;PMS7003;74440;52.600;21.450;2024-01-30T22:46:23;36;32;19
84282;PMS7003;74440;52.600;21.450;2024-01-30T22:50:35;35;30;21
84282;PMS7003;74440;52.600;21.450;2024-01-30T22:54:37;43;33;22
84282;PMS7003;74440;52.600;21.450;2024-01-30T22:58:38;44;37;22
84282;PMS7003;74440;52.600;21.450;2024-01-30T23:02:42;38;31;21
84282;PMS7003;74440;52.600;21.450;2024-01-30T23:06:44;36;28;19
84282;PMS7003;74440;52.600;21.450;2024-01-30T23:10:45;40;32;20
84282;PMS7003;74440;52.600;21.450;2024-01-30T23:14:46;31;27;19
84282;PMS7003;74440;52.600;21.450;2024-01-30T23:18:50;31;25;19
84282;PMS7003;74440;52.600;21.450;2024-01-30T23:22:52;37;30;19
84282;PMS7003;74440;52.600;21.450;2024-01-30T23:27:05;30;26;19
84282;PMS7003;74440;52.600;21.450;2024-01-30T23:31:07;35;30;21
84282;PMS7003;74440;52.600;21.450;2024-01-30T23:35:09;35;28;19
84282;PMS7003;74440;52.600;21.450;2024-01-30T23:39:11;33;29;19
84282;PMS7003;74440;52.600;21.450;2024-01-30T23:43:13;34;26;17
84282;PMS7003;74440;52.600;21.450;2024-01-30T23:47:14;42;31;19
84282;PMS7003;74440;52.600;21.450;2024-01-30T23:51:16;31;28;17
84282;PMS7003;74440;52.600;21.450;2024-01-30T23:55:17;25;25;17
84282;PMS7003;74440;52.600;21.450;2024-01-30T23:59:19;32;26;18
